Aviation Digital Data Service (ADDS)

Output produced by METARs form (0839 UTC 18 February 2019)
found at http://www.aviationweather.gov/metar/data/
 
METAR text: DNAA 180800Z 04003KT 4000 HZ NSC 26/03 Q1015 NOSIG
Conditions at: DNAA (ABUJA , NG) observed 0800 UTC 18 February 2019
Temperature: 26.0°C (79°F)
Dewpoint: 3.0°C (37°F) [RH = 23%]
Pressure (altimeter): 29.97 inches Hg (1015.0 mb)
Winds: from the NE (40 degrees) at 3 MPH (3 knots; 1.5 m/s)
Visibility: 2.49 miles (4.01 km)
Ceiling: at least 12,000 feet AGL
Clouds: sky clear below 12,000 feet AGL
Weather: HZ  (haze)

METAR text: DNAA 180600Z 06003KT 010V090 4000 HZ NSC 22/03 Q1014 NOSIG
Conditions at: DNAA (ABUJA , NG) observed 0600 UTC 18 February 2019
Temperature: 22.0°C (72°F)
Dewpoint: 3.0°C (37°F) [RH = 29%]
Pressure (altimeter): 29.94 inches Hg (1014.0 mb)
Winds: from the ENE (60 degrees) at 3 MPH (3 knots; 1.5 m/s)
Visibility: 2.49 miles (4.01 km)
Ceiling: at least 12,000 feet AGL
Clouds: sky clear below 12,000 feet AGL
Weather: HZ  (haze)

METAR text: DNAA 180500Z 06007KT 3000 HZ NSC 22/04 Q1013 NOSIG
Conditions at: DNAA (ABUJA , NG) observed 0500 UTC 18 February 2019
Temperature: 22.0°C (72°F)
Dewpoint: 4.0°C (39°F) [RH = 31%]
Pressure (altimeter): 29.91 inches Hg (1013.0 mb)
Winds: from the ENE (60 degrees) at 8 MPH (7 knots; 3.6 m/s)
Visibility: 1.86 miles (2.99 km)
Ceiling: at least 12,000 feet AGL
Clouds: sky clear below 12,000 feet AGL
Weather: HZ  (haze)

METAR text: DNAA 180400Z 07005KT 3000 HZ NSC 21/06 Q1013 NOSIG
Conditions at: DNAA (ABUJA , NG) observed 0400 UTC 18 February 2019
Temperature: 21.0°C (70°F)
Dewpoint: 6.0°C (43°F) [RH = 38%]
Pressure (altimeter): 29.91 inches Hg (1013.0 mb)
Winds: from the ENE (70 degrees) at 6 MPH (5 knots; 2.6 m/s)
Visibility: 1.86 miles (2.99 km)
Ceiling: at least 12,000 feet AGL
Clouds: sky clear below 12,000 feet AGL
Weather: HZ  (haze)

METAR text: DNAA 180300Z 07003KT 3000 HZ NSC 23/04 Q1013 NOSIG
Conditions at: DNAA (ABUJA , NG) observed 0300 UTC 18 February 2019
Temperature: 23.0°C (73°F)
Dewpoint: 4.0°C (39°F) [RH = 29%]
Pressure (altimeter): 29.91 inches Hg (1013.0 mb)
Winds: from the ENE (70 degrees) at 3 MPH (3 knots; 1.5 m/s)
Visibility: 1.86 miles (2.99 km)
Ceiling: at least 12,000 feet AGL
Clouds: sky clear below 12,000 feet AGL
Weather: HZ  (haze)

METAR text: DNAA 172300Z 03003KT 2500 HZ NSC 26/04 Q1014 NOSIG
Conditions at: DNAA (ABUJA , NG) observed 2300 UTC 17 February 2019
Temperature: 26.0°C (79°F)
Dewpoint: 4.0°C (39°F) [RH = 24%]
Pressure (altimeter): 29.94 inches Hg (1014.0 mb)
Winds: from the NNE (30 degrees) at 3 MPH (3 knots; 1.5 m/s)
Visibility: 1.55 miles (2.49 km)
Ceiling: at least 12,000 feet AGL
Clouds: sky clear below 12,000 feet AGL
Weather: HZ  (haze)

METAR text: DNAA 172200Z 08005KT 2500 HZ NSC 27/04 Q1014 NOSIG
Conditions at: DNAA (ABUJA , NG) observed 2200 UTC 17 February 2019
Temperature: 27.0°C (81°F)
Dewpoint: 4.0°C (39°F) [RH = 23%]
Pressure (altimeter): 29.94 inches Hg (1014.0 mb)
Winds: from the E (80 degrees) at 6 MPH (5 knots; 2.6 m/s)
Visibility: 1.55 miles (2.49 km)
Ceiling: at least 12,000 feet AGL
Clouds: sky clear below 12,000 feet AGL
Weather: HZ  (haze)

METAR text: DNAA 172100Z 02005KT 2500 HZ NSC 28/03 Q1014 NOSIG
Conditions at: DNAA (ABUJA , NG) observed 2100 UTC 17 February 2019
Temperature: 28.0°C (82°F)
Dewpoint: 3.0°C (37°F) [RH = 20%]
Pressure (altimeter): 29.94 inches Hg (1014.0 mb)
Winds: from the NNE (20 degrees) at 6 MPH (5 knots; 2.6 m/s)
Visibility: 1.55 miles (2.49 km)
Ceiling: at least 12,000 feet AGL
Clouds: sky clear below 12,000 feet AGL
Weather: HZ  (haze)

METAR text: DNAA 172000Z 03003KT 2500 HZ NSC 30/03 Q1013 NOSIG
Conditions at: DNAA (ABUJA , NG) observed 2000 UTC 17 February 2019
Temperature: 30.0°C (86°F)
Dewpoint: 3.0°C (37°F) [RH = 18%]
Pressure (altimeter): 29.91 inches Hg (1013.0 mb)
Winds: from the NNE (30 degrees) at 3 MPH (3 knots; 1.5 m/s)
Visibility: 1.55 miles (2.49 km)
Ceiling: at least 12,000 feet AGL
Clouds: sky clear below 12,000 feet AGL
Weather: HZ  (haze)

METAR text: DNAA 171900Z 28003KT 2500 HZ NSC 31/00 Q1012 NOSIG
Conditions at: DNAA (ABUJA , NG) observed 1900 UTC 17 February 2019
Temperature: 31.0°C (88°F)
Dewpoint: 0.0°C (32°F) [RH = 14%]
Pressure (altimeter): 29.88 inches Hg (1012.0 mb)
Winds: from the W (280 degrees) at 3 MPH (3 knots; 1.5 m/s)
Visibility: 1.55 miles (2.49 km)
Ceiling: at least 12,000 feet AGL
Clouds: sky clear below 12,000 feet AGL
Weather: HZ  (haze)

METAR text: DNAA 171800Z 29005KT 2500 HZ NSC 33/M00 Q1011 NOSIG
Conditions at: DNAA (ABUJA , NG) observed 1800 UTC 17 February 2019
Temperature: 33.0°C (91°F)
Dewpoint: 0.0°C (32°F) [RH = 12%]
Pressure (altimeter): 29.85 inches Hg (1011.0 mb)
Winds: from the WNW (290 degrees) at 6 MPH (5 knots; 2.6 m/s)
Visibility: 1.55 miles (2.49 km)
Ceiling: at least 12,000 feet AGL
Clouds: sky clear below 12,000 feet AGL
Weather: HZ  (haze)

METAR text: DNAA 171700Z 29004KT 260V320 2500 HZ NSC 35/00 Q1011 NOSIG
Conditions at: DNAA (ABUJA , NG) observed 1700 UTC 17 February 2019
Temperature: 35.0°C (95°F)
Dewpoint: 0.0°C (32°F) [RH = 11%]
Pressure (altimeter): 29.85 inches Hg (1011.0 mb)
Winds: from the WNW (290 degrees) at 5 MPH (4 knots; 2.1 m/s)
Visibility: 1.55 miles (2.49 km)
Ceiling: at least 12,000 feet AGL
Clouds: sky clear below 12,000 feet AGL
Weather: HZ  (haze)

METAR text: DNAA 171600Z 33003KT 2500 HZ NSC 36/00 Q1010 NOSIG
Conditions at: DNAA (ABUJA , NG) observed 1600 UTC 17 February 2019
Temperature: 36.0°C (97°F)
Dewpoint: 0.0°C (32°F) [RH = 10%]
Pressure (altimeter): 29.82 inches Hg (1010.0 mb)
Winds: from the NNW (330 degrees) at 3 MPH (3 knots; 1.5 m/s)
Visibility: 1.55 miles (2.49 km)
Ceiling: at least 12,000 feet AGL
Clouds: sky clear below 12,000 feet AGL
Weather: HZ  (haze)

METAR text: DNAA 171500Z 17005KT 120V240 2500 HZ NSC 35/00 Q1011 NOSIG
Conditions at: DNAA (ABUJA , NG) observed 1500 UTC 17 February 2019
Temperature: 35.0°C (95°F)
Dewpoint: 0.0°C (32°F) [RH = 11%]
Pressure (altimeter): 29.85 inches Hg (1011.0 mb)
Winds: from the S (170 degrees) at 6 MPH (5 knots; 2.6 m/s)
Visibility: 1.55 miles (2.49 km)
Ceiling: at least 12,000 feet AGL
Clouds: sky clear below 12,000 feet AGL
Weather: HZ  (haze)

METAR text: DNAA 171400Z 08004KT 010V160 2500 HZ NSC 35/M01 Q1012 NOSIG
Conditions at: DNAA (ABUJA , NG) observed 1400 UTC 17 February 2019
Temperature: 35.0°C (95°F)
Dewpoint: -1.0°C (30°F) [RH = 10%]
Pressure (altimeter): 29.88 inches Hg (1012.0 mb)
Winds: from the E (80 degrees) at 5 MPH (4 knots; 2.1 m/s)
Visibility: 1.55 miles (2.49 km)
Ceiling: at least 12,000 feet AGL
Clouds: sky clear below 12,000 feet AGL
Weather: HZ  (haze)

METAR text: DNAA 171300Z 28005KT 210V360 2500 HZ NSC 34/00 Q1013 NOSIG
Conditions at: DNAA (ABUJA , NG) observed 1300 UTC 17 February 2019
Temperature: 34.0°C (93°F)
Dewpoint: 0.0°C (32°F) [RH = 11%]
Pressure (altimeter): 29.91 inches Hg (1013.0 mb)
Winds: from the W (280 degrees) at 6 MPH (5 knots; 2.6 m/s)
Visibility: 1.55 miles (2.49 km)
Ceiling: at least 12,000 feet AGL
Clouds: sky clear below 12,000 feet AGL
Weather: HZ  (haze)

METAR text: DNAA 171200Z 27005KT 2500 HZ NSC 34/00 Q1015 NOSIG
Conditions at: DNAA (ABUJA , NG) observed 1200 UTC 17 February 2019
Temperature: 34.0°C (93°F)
Dewpoint: 0.0°C (32°F) [RH = 11%]
Pressure (altimeter): 29.97 inches Hg (1015.0 mb)
Winds: from the W (270 degrees) at 6 MPH (5 knots; 2.6 m/s)
Visibility: 1.55 miles (2.49 km)
Ceiling: at least 12,000 feet AGL
Clouds: sky clear below 12,000 feet AGL
Weather: HZ  (haze)

METAR text: DNAA 170900Z VRB02KT 2500 HZ NSC 29/01 Q1017 NOSIG
Conditions at: DNAA (ABUJA , NG) observed 0900 UTC 17 February 2019
Temperature: 29.0°C (84°F)
Dewpoint: 1.0°C (34°F) [RH = 16%]
Pressure (altimeter): 30.03 inches Hg (1017.0 mb)
Winds: variable direction winds at 2 MPH (2 knots; 1.0 m/s)
Visibility: 1.55 miles (2.49 km)
Ceiling: at least 12,000 feet AGL
Clouds: sky clear below 12,000 feet AGL
Weather: HZ  (haze)

METAR text: DNAA 170700Z 04005KT 2500 HZ NSC 21/05 Q1016 BECMG 3000
Conditions at: DNAA (ABUJA , NG) observed 0700 UTC 17 February 2019
Temperature: 21.0°C (70°F)
Dewpoint: 5.0°C (41°F) [RH = 35%]
Pressure (altimeter): 30.00 inches Hg (1016.0 mb)
Winds: from the NE (40 degrees) at 6 MPH (5 knots; 2.6 m/s)
Visibility: 1.55 miles (2.49 km)
Ceiling: at least 12,000 feet AGL
Clouds: sky clear below 12,000 feet AGL
Weather: HZ  (haze)

METAR text: DNAA 170600Z 08003KT 1200 DU NSC 20/06 Q1015 BECMG 1500
Conditions at: DNAA (ABUJA , NG) observed 0600 UTC 17 February 2019
Temperature: 20.0°C (68°F)
Dewpoint: 6.0°C (43°F) [RH = 40%]
Pressure (altimeter): 29.97 inches Hg (1015.0 mb)
Winds: from the E (80 degrees) at 3 MPH (3 knots; 1.5 m/s)
Visibility: 0.75 miles (1.21 km)
Ceiling: at least 12,000 feet AGL
Clouds: sky clear below 12,000 feet AGL
Weather: DU  (widespread dust)

METAR text: DNAA 170500Z 07005KT 1200 DU NSC 20/06 Q1014 BECMG 1500
Conditions at: DNAA (ABUJA , NG) observed 0500 UTC 17 February 2019
Temperature: 20.0°C (68°F)
Dewpoint: 6.0°C (43°F) [RH = 40%]
Pressure (altimeter): 29.94 inches Hg (1014.0 mb)
Winds: from the ENE (70 degrees) at 6 MPH (5 knots; 2.6 m/s)
Visibility: 0.75 miles (1.21 km)
Ceiling: at least 12,000 feet AGL
Clouds: sky clear below 12,000 feet AGL
Weather: DU  (widespread dust)

METAR text: DNAA 170400Z 04004KT 1200 DU NSC 21/05 Q1014 BECMG 1500
Conditions at: DNAA (ABUJA , NG) observed 0400 UTC 17 February 2019
Temperature: 21.0°C (70°F)
Dewpoint: 5.0°C (41°F) [RH = 35%]
Pressure (altimeter): 29.94 inches Hg (1014.0 mb)
Winds: from the NE (40 degrees) at 5 MPH (4 knots; 2.1 m/s)
Visibility: 0.75 miles (1.21 km)
Ceiling: at least 12,000 feet AGL
Clouds: sky clear below 12,000 feet AGL
Weather: DU  (widespread dust)

METAR text: DNAA 170200Z 08005KT 1200 DU NSC 23/04 Q1014 NOSIG
Conditions at: DNAA (ABUJA , NG) observed 0200 UTC 17 February 2019
Temperature: 23.0°C (73°F)
Dewpoint: 4.0°C (39°F) [RH = 29%]
Pressure (altimeter): 29.94 inches Hg (1014.0 mb)
Winds: from the E (80 degrees) at 6 MPH (5 knots; 2.6 m/s)
Visibility: 0.75 miles (1.21 km)
Ceiling: at least 12,000 feet AGL
Clouds: sky clear below 12,000 feet AGL
Weather: DU  (widespread dust)

METAR text: DNAA 170100Z 04004KT 1200 DU NSC 23/04 Q1014 NOSIG
Conditions at: DNAA (ABUJA , NG) observed 0100 UTC 17 February 2019
Temperature: 23.0°C (73°F)
Dewpoint: 4.0°C (39°F) [RH = 29%]
Pressure (altimeter): 29.94 inches Hg (1014.0 mb)
Winds: from the NE (40 degrees) at 5 MPH (4 knots; 2.1 m/s)
Visibility: 0.75 miles (1.21 km)
Ceiling: at least 12,000 feet AGL
Clouds: sky clear below 12,000 feet AGL
Weather: DU  (widespread dust)

METAR text: DNAA 170000Z 07006KT 1200 DU NSC 25/04 Q1015 NOSIG
Conditions at: DNAA (ABUJA , NG) observed 0000 UTC 17 February 2019
Temperature: 25.0°C (77°F)
Dewpoint: 4.0°C (39°F) [RH = 26%]
Pressure (altimeter): 29.97 inches Hg (1015.0 mb)
Winds: from the ENE (70 degrees) at 7 MPH (6 knots; 3.1 m/s)
Visibility: 0.75 miles (1.21 km)
Ceiling: at least 12,000 feet AGL
Clouds: sky clear below 12,000 feet AGL
Weather: DU  (widespread dust)

METAR text: DNAA 162300Z 02003KT 360V060 1200 DU NSC 25/03 Q1016 NOSIG
Conditions at: DNAA (ABUJA , NG) observed 2300 UTC 16 February 2019
Temperature: 25.0°C (77°F)
Dewpoint: 3.0°C (37°F) [RH = 24%]
Pressure (altimeter): 30.00 inches Hg (1016.0 mb)
Winds: from the NNE (20 degrees) at 3 MPH (3 knots; 1.5 m/s)
Visibility: 0.75 miles (1.21 km)
Ceiling: at least 12,000 feet AGL
Clouds: sky clear below 12,000 feet AGL
Weather: DU  (widespread dust)

METAR text: DNAA 162200Z 09005KT 1200 DU NSC 26/02 Q1015 NOSIG
Conditions at: DNAA (ABUJA , NG) observed 2200 UTC 16 February 2019
Temperature: 26.0°C (79°F)
Dewpoint: 2.0°C (36°F) [RH = 21%]
Pressure (altimeter): 29.97 inches Hg (1015.0 mb)
Winds: from the E (90 degrees) at 6 MPH (5 knots; 2.6 m/s)
Visibility: 0.75 miles (1.21 km)
Ceiling: at least 12,000 feet AGL
Clouds: sky clear below 12,000 feet AGL
Weather: DU  (widespread dust)

METAR text: DNAA 162100Z 08003KT 1200 DU NSC 28/01 Q1015 NOSIG
Conditions at: DNAA (ABUJA , NG) observed 2100 UTC 16 February 2019
Temperature: 28.0°C (82°F)
Dewpoint: 1.0°C (34°F) [RH = 17%]
Pressure (altimeter): 29.97 inches Hg (1015.0 mb)
Winds: from the E (80 degrees) at 3 MPH (3 knots; 1.5 m/s)
Visibility: 0.75 miles (1.21 km)
Ceiling: at least 12,000 feet AGL
Clouds: sky clear below 12,000 feet AGL
Weather: DU  (widespread dust)

Forecast for: DNAA (ABUJA , NG)
Text: TAF DNAA 180330Z 1806/1912 07003KT 3000 HZ NSC
Forecast period: 0600 to 1200 UTC 18 February 2019
Forecast type: FROM: standard forecast or significant change
Winds: from the ENE (70 degrees) at 3 MPH (3 knots; 1.5 m/s)
Visibility: 1.86 miles (2.99 km)
Ceiling: unknown
Clouds: missing
Weather: HZ  (haze)
Text: BECMG 1812/1814 17010KT
Forecast period: 1200 UTC 18 February 2019 to 1200 UTC 19 February 2019
Forecast type: BECOMING: Conditions expected to become as follows by 1400 UTC 18 February 2019
Winds: from the S (170 degrees) at 12 MPH (10 knots; 5.1 m/s)
Visibility: 1.86 miles (2.99 km)
Ceiling: unknown
Clouds: missing
Weather: HZ  (haze)